sensor_id;sensor_type;location;lat;lon;timestamp;P1;durP1;ratioP1;P2;durP2;ratioP2
52848;SDS011;38714;53.180;5.812;2023-05-20T00:00:57;4.07;;;1.77;;
52848;SDS011;38714;53.180;5.812;2023-05-20T00:03:23;5.53;;;3.05;;
52848;SDS011;38714;53.180;5.812;2023-05-20T00:05:49;3.63;;;1.63;;
52848;SDS011;38714;53.180;5.812;2023-05-20T00:08:17;4.13;;;1.70;;
52848;SDS011;38714;53.180;5.812;2023-05-20T00:10:43;2.20;;;1.67;;
52848;SDS011;38714;53.180;5.812;2023-05-20T00:13:08;4.80;;;2.78;;
52848;SDS011;38714;53.180;5.812;2023-05-20T00:15:34;1.85;;;1.40;;
52848;SDS011;38714;53.180;5.812;2023-05-20T00:18:00;2.40;;;1.55;;
52848;SDS011;38714;53.180;5.812;2023-05-20T00:20:26;5.75;;;1.77;;
52848;SDS011;38714;53.180;5.812;2023-05-20T00:22:52;3.33;;;1.90;;
52848;SDS011;38714;53.180;5.812;2023-05-20T00:25:17;7.90;;;2.25;;
52848;SDS011;38714;53.180;5.812;2023-05-20T00:27:43;3.08;;;1.77;;
52848;SDS011;38714;53.180;5.812;2023-05-20T00:30:09;7.72;;;2.20;;
52848;SDS011;38714;53.180;5.812;2023-05-20T00:32:35;3.00;;;1.92;;
52848;SDS011;38714;53.180;5.812;2023-05-20T00:35:01;4.40;;;1.80;;
52848;SDS011;38714;53.180;5.812;2023-05-20T00:37:27;7.55;;;3.05;;
52848;SDS011;38714;53.180;5.812;2023-05-20T00:39:53;9.45;;;2.20;;
52848;SDS011;38714;53.180;5.812;2023-05-20T00:42:28;3.78;;;1.40;;
52848;SDS011;38714;53.180;5.812;2023-05-20T00:44:54;7.75;;;2.28;;
52848;SDS011;38714;53.180;5.812;2023-05-20T00:47:20;2.85;;;1.95;;
52848;SDS011;38714;53.180;5.812;2023-05-20T00:49:50;3.60;;;1.73;;
52848;SDS011;38714;53.180;5.812;2023-05-20T00:52:17;6.95;;;2.28;;
52848;SDS011;38714;53.180;5.812;2023-05-20T00:54:43;5.53;;;1.95;;
52848;SDS011;38714;53.180;5.812;2023-05-20T00:57:10;4.03;;;1.50;;
52848;SDS011;38714;53.180;5.812;2023-05-20T00:59:36;3.78;;;2.00;;
52848;SDS011;38714;53.180;5.812;2023-05-20T01:02:05;4.43;;;1.77;;
52848;SDS011;38714;53.180;5.812;2023-05-20T01:04:31;5.93;;;2.15;;
52848;SDS011;38714;53.180;5.812;2023-05-20T01:07:01;2.08;;;1.50;;
52848;SDS011;38714;53.180;5.812;2023-05-20T01:09:28;8.82;;;1.45;;
52848;SDS011;38714;53.180;5.812;2023-05-20T01:12:04;6.45;;;2.53;;
52848;SDS011;38714;53.180;5.812;2023-05-20T01:14:50;5.75;;;2.45;;
52848;SDS011;38714;53.180;5.812;2023-05-20T01:17:24;2.63;;;1.80;;
52848;SDS011;38714;53.180;5.812;2023-05-20T01:19:51;5.57;;;2.03;;
52848;SDS011;38714;53.180;5.812;2023-05-20T01:22:23;4.20;;;2.28;;
52848;SDS011;38714;53.180;5.812;2023-05-20T01:24:52;4.35;;;2.10;;
52848;SDS011;38714;53.180;5.812;2023-05-20T01:27:19;4.40;;;1.95;;
52848;SDS011;38714;53.180;5.812;2023-05-20T01:29:46;6.80;;;2.60;;
52848;SDS011;38714;53.180;5.812;2023-05-20T01:32:35;3.22;;;2.20;;
52848;SDS011;38714;53.180;5.812;2023-05-20T01:35:05;5.88;;;2.40;;
52848;SDS011;38714;53.180;5.812;2023-05-20T01:37:32;5.05;;;3.00;;
52848;SDS011;38714;53.180;5.812;2023-05-20T01:40:02;5.45;;;2.28;;
52848;SDS011;38714;53.180;5.812;2023-05-20T01:42:29;6.82;;;2.72;;
52848;SDS011;38714;53.180;5.812;2023-05-20T01:44:56;5.53;;;1.98;;
52848;SDS011;38714;53.180;5.812;2023-05-20T01:47:23;3.75;;;1.92;;
52848;SDS011;38714;53.180;5.812;2023-05-20T01:49:48;5.93;;;2.00;;
52848;SDS011;38714;53.180;5.812;2023-05-20T01:52:16;14.50;;;2.70;;
52848;SDS011;38714;53.180;5.812;2023-05-20T01:54:42;3.92;;;2.65;;
52848;SDS011;38714;53.180;5.812;2023-05-20T01:59:41;4.00;;;2.03;;
52848;SDS011;38714;53.180;5.812;2023-05-20T02:02:07;5.18;;;2.35;;
52848;SDS011;38714;53.180;5.812;2023-05-20T02:04:32;5.00;;;2.40;;
52848;SDS011;38714;53.180;5.812;2023-05-20T02:06:58;4.60;;;2.42;;
52848;SDS011;38714;53.180;5.812;2023-05-20T02:09:23;5.25;;;2.38;;
52848;SDS011;38714;53.180;5.812;2023-05-20T02:11:49;6.82;;;2.10;;
52848;SDS011;38714;53.180;5.812;2023-05-20T02:14:14;4.13;;;2.53;;
52848;SDS011;38714;53.180;5.812;2023-05-20T02:16:40;6.03;;;1.90;;
52848;SDS011;38714;53.180;5.812;2023-05-20T02:19:06;7.45;;;2.33;;
52848;SDS011;38714;53.180;5.812;2023-05-20T02:21:36;3.80;;;1.90;;
52848;SDS011;38714;53.180;5.812;2023-05-20T02:24:05;6.13;;;2.13;;
52848;SDS011;38714;53.180;5.812;2023-05-20T02:26:32;7.38;;;2.20;;
52848;SDS011;38714;53.180;5.812;2023-05-20T02:28:58;5.03;;;2.40;;
52848;SDS011;38714;53.180;5.812;2023-05-20T02:31:24;4.65;;;2.05;;
52848;SDS011;38714;53.180;5.812;2023-05-20T02:33:50;5.00;;;2.00;;
52848;SDS011;38714;53.180;5.812;2023-05-20T02:36:15;5.80;;;2.58;;
52848;SDS011;38714;53.180;5.812;2023-05-20T02:38:41;5.88;;;2.88;;
52848;SDS011;38714;53.180;5.812;2023-05-20T02:41:07;5.38;;;2.05;;
52848;SDS011;38714;53.180;5.812;2023-05-20T02:43:33;5.85;;;2.80;;
52848;SDS011;38714;53.180;5.812;2023-05-20T02:46:00;4.13;;;2.15;;
52848;SDS011;38714;53.180;5.812;2023-05-20T02:48:26;5.88;;;2.85;;
52848;SDS011;38714;53.180;5.812;2023-05-20T02:50:52;7.63;;;2.22;;
52848;SDS011;38714;53.180;5.812;2023-05-20T02:53:17;7.97;;;2.47;;
52848;SDS011;38714;53.180;5.812;2023-05-20T02:55:44;3.05;;;2.50;;
52848;SDS011;38714;53.180;5.812;2023-05-20T02:58:14;9.02;;;2.13;;
52848;SDS011;38714;53.180;5.812;2023-05-20T03:00:40;6.57;;;2.40;;
52848;SDS011;38714;53.180;5.812;2023-05-20T03:03:06;3.58;;;1.88;;
52848;SDS011;38714;53.180;5.812;2023-05-20T03:05:32;5.15;;;1.98;;
52848;SDS011;38714;53.180;5.812;2023-05-20T03:08:01;5.40;;;2.50;;
52848;SDS011;38714;53.180;5.812;2023-05-20T03:10:28;3.92;;;2.60;;
52848;SDS011;38714;53.180;5.812;2023-05-20T03:12:54;2.00;;;1.77;;
52848;SDS011;38714;53.180;5.812;2023-05-20T03:15:19;2.35;;;1.40;;
52848;SDS011;38714;53.180;5.812;2023-05-20T03:17:45;3.08;;;1.63;;
52848;SDS011;38714;53.180;5.812;2023-05-20T03:20:10;4.57;;;2.33;;
52848;SDS011;38714;53.180;5.812;2023-05-20T03:22:37;8.77;;;2.10;;
52848;SDS011;38714;53.180;5.812;2023-05-20T03:25:03;3.78;;;2.40;;
52848;SDS011;38714;53.180;5.812;2023-05-20T03:27:30;7.82;;;2.30;;
52848;SDS011;38714;53.180;5.812;2023-05-20T03:29:56;2.78;;;1.80;;
52848;SDS011;38714;53.180;5.812;2023-05-20T03:32:21;4.82;;;1.70;;
52848;SDS011;38714;53.180;5.812;2023-05-20T03:34:47;3.80;;;1.95;;
52848;SDS011;38714;53.180;5.812;2023-05-20T03:37:12;5.75;;;2.45;;
52848;SDS011;38714;53.180;5.812;2023-05-20T03:39:38;2.50;;;1.55;;
52848;SDS011;38714;53.180;5.812;2023-05-20T03:42:04;3.90;;;2.22;;
52848;SDS011;38714;53.180;5.812;2023-05-20T03:44:29;2.97;;;2.20;;
52848;SDS011;38714;53.180;5.812;2023-05-20T03:46:55;2.60;;;1.40;;
52848;SDS011;38714;53.180;5.812;2023-05-20T03:49:21;5.18;;;1.73;;
52848;SDS011;38714;53.180;5.812;2023-05-20T03:51:47;2.83;;;1.55;;
52848;SDS011;38714;53.180;5.812;2023-05-20T03:54:12;5.97;;;1.90;;
52848;SDS011;38714;53.180;5.812;2023-05-20T03:56:40;3.10;;;1.70;;
52848;SDS011;38714;53.180;5.812;2023-05-20T03:59:06;6.38;;;1.90;;
52848;SDS011;38714;53.180;5.812;2023-05-20T04:01:31;6.75;;;1.67;;
52848;SDS011;38714;53.180;5.812;2023-05-20T04:03:57;4.40;;;2.17;;
52848;SDS011;38714;53.180;5.812;2023-05-20T04:06:23;4.63;;;2.78;;
52848;SDS011;38714;53.180;5.812;2023-05-20T04:08:48;3.47;;;1.67;;
52848;SDS011;38714;53.180;5.812;2023-05-20T04:11:14;2.92;;;1.83;;
52848;SDS011;38714;53.180;5.812;2023-05-20T04:13:41;1.60;;;1.35;;
52848;SDS011;38714;53.180;5.812;2023-05-20T04:16:06;4.43;;;1.45;;
52848;SDS011;38714;53.180;5.812;2023-05-20T04:18:32;1.67;;;1.50;;
52848;SDS011;38714;53.180;5.812;2023-05-20T04:20:57;2.88;;;1.20;;
52848;SDS011;38714;53.180;5.812;2023-05-20T04:23:25;4.57;;;1.08;;
52848;SDS011;38714;53.180;5.812;2023-05-20T04:25:51;1.73;;;0.98;;
52848;SDS011;38714;53.180;5.812;2023-05-20T04:28:16;2.30;;;1.60;;
52848;SDS011;38714;53.180;5.812;2023-05-20T04:30:42;2.22;;;1.00;;
52848;SDS011;38714;53.180;5.812;2023-05-20T04:33:09;6.15;;;1.33;;
52848;SDS011;38714;53.180;5.812;2023-05-20T04:35:35;3.05;;;1.00;;
52848;SDS011;38714;53.180;5.812;2023-05-20T04:38:02;1.95;;;1.08;;
52848;SDS011;38714;53.180;5.812;2023-05-20T04:40:27;0.70;;;0.70;;
52848;SDS011;38714;53.180;5.812;2023-05-20T04:42:53;1.95;;;1.50;;
52848;SDS011;38714;53.180;5.812;2023-05-20T04:45:19;1.75;;;1.10;;
52848;SDS011;38714;53.180;5.812;2023-05-20T04:47:47;4.65;;;1.85;;
52848;SDS011;38714;53.180;5.812;2023-05-20T04:50:13;2.45;;;1.23;;
52848;SDS011;38714;53.180;5.812;2023-05-20T04:52:38;2.70;;;1.42;;
52848;SDS011;38714;53.180;5.812;2023-05-20T04:55:06;5.80;;;1.25;;
52848;SDS011;38714;53.180;5.812;2023-05-20T04:57:34;2.33;;;1.00;;
52848;SDS011;38714;53.180;5.812;2023-05-20T05:00:00;2.72;;;1.20;;
52848;SDS011;38714;53.180;5.812;2023-05-20T05:02:26;2.58;;;0.88;;
52848;SDS011;38714;53.180;5.812;2023-05-20T05:04:51;1.48;;;0.80;;
52848;SDS011;38714;53.180;5.812;2023-05-20T05:07:17;1.48;;;1.30;;
52848;SDS011;38714;53.180;5.812;2023-05-20T05:09:43;3.25;;;1.10;;
52848;SDS011;38714;53.180;5.812;2023-05-20T05:12:08;5.10;;;1.08;;
52848;SDS011;38714;53.180;5.812;2023-05-20T05:14:34;1.55;;;1.30;;
52848;SDS011;38714;53.180;5.812;2023-05-20T05:16:59;2.40;;;0.85;;
52848;SDS011;38714;53.180;5.812;2023-05-20T05:19:25;1.58;;;1.05;;
52848;SDS011;38714;53.180;5.812;2023-05-20T05:21:50;3.58;;;0.90;;
52848;SDS011;38714;53.180;5.812;2023-05-20T05:24:16;0.98;;;0.90;;
52848;SDS011;38714;53.180;5.812;2023-05-20T05:26:42;3.42;;;1.48;;
52848;SDS011;38714;53.180;5.812;2023-05-20T05:29:08;4.38;;;1.48;;
52848;SDS011;38714;53.180;5.812;2023-05-20T05:31:34;2.15;;;0.98;;
52848;SDS011;38714;53.180;5.812;2023-05-20T05:33:59;2.00;;;1.25;;
52848;SDS011;38714;53.180;5.812;2023-05-20T05:36:25;2.83;;;1.10;;
52848;SDS011;38714;53.180;5.812;2023-05-20T05:38:51;2.97;;;0.80;;
52848;SDS011;38714;53.180;5.812;2023-05-20T05:41:16;1.63;;;0.68;;
52848;SDS011;38714;53.180;5.812;2023-05-20T05:43:42;0.77;;;0.57;;
52848;SDS011;38714;53.180;5.812;2023-05-20T05:46:07;2.00;;;0.85;;
52848;SDS011;38714;53.180;5.812;2023-05-20T05:48:34;2.20;;;0.88;;
52848;SDS011;38714;53.180;5.812;2023-05-20T05:51:00;1.30;;;0.77;;
52848;SDS011;38714;53.180;5.812;2023-05-20T05:53:26;1.83;;;0.93;;
52848;SDS011;38714;53.180;5.812;2023-05-20T05:55:51;0.90;;;0.63;;
52848;SDS011;38714;53.180;5.812;2023-05-20T05:58:17;1.58;;;1.10;;
52848;SDS011;38714;53.180;5.812;2023-05-20T06:00:42;1.52;;;0.73;;
52848;SDS011;38714;53.180;5.812;2023-05-20T06:03:08;0.95;;;0.70;;
52848;SDS011;38714;53.180;5.812;2023-05-20T06:05:34;1.55;;;0.50;;
52848;SDS011;38714;53.180;5.812;2023-05-20T06:07:59;1.67;;;0.60;;
52848;SDS011;38714;53.180;5.812;2023-05-20T06:10:25;1.30;;;1.00;;
52848;SDS011;38714;53.180;5.812;2023-05-20T06:12:50;1.50;;;0.80;;
52848;SDS011;38714;53.180;5.812;2023-05-20T06:15:16;2.63;;;0.80;;
52848;SDS011;38714;53.180;5.812;2023-05-20T06:17:42;0.90;;;0.90;;
52848;SDS011;38714;53.180;5.812;2023-05-20T06:20:08;1.27;;;0.80;;
52848;SDS011;38714;53.180;5.812;2023-05-20T06:22:33;1.10;;;1.00;;
52848;SDS011;38714;53.180;5.812;2023-05-20T06:24:59;0.95;;;0.75;;
52848;SDS011;38714;53.180;5.812;2023-05-20T06:27:26;3.13;;;1.13;;
52848;SDS011;38714;53.180;5.812;2023-05-20T06:29:52;1.55;;;0.80;;
52848;SDS011;38714;53.180;5.812;2023-05-20T06:32:18;0.98;;;0.95;;
52848;SDS011;38714;53.180;5.812;2023-05-20T06:34:43;2.13;;;0.82;;
52848;SDS011;38714;53.180;5.812;2023-05-20T06:37:09;0.50;;;0.50;;
52848;SDS011;38714;53.180;5.812;2023-05-20T06:39:35;0.95;;;0.65;;
52848;SDS011;38714;53.180;5.812;2023-05-20T06:42:01;1.20;;;0.70;;
52848;SDS011;38714;53.180;5.812;2023-05-20T06:44:27;0.80;;;0.52;;
52848;SDS011;38714;53.180;5.812;2023-05-20T06:46:52;0.32;;;0.30;;
52848;SDS011;38714;53.180;5.812;2023-05-20T06:49:18;0.85;;;0.70;;
52848;SDS011;38714;53.180;5.812;2023-05-20T06:51:43;2.40;;;0.90;;
52848;SDS011;38714;53.180;5.812;2023-05-20T06:54:09;2.58;;;0.60;;
52848;SDS011;38714;53.180;5.812;2023-05-20T06:56:34;1.90;;;0.70;;
52848;SDS011;38714;53.180;5.812;2023-05-20T06:59:00;2.75;;;0.60;;
52848;SDS011;38714;53.180;5.812;2023-05-20T07:01:26;0.70;;;0.60;;
52848;SDS011;38714;53.180;5.812;2023-05-20T07:03:51;0.75;;;0.50;;
52848;SDS011;38714;53.180;5.812;2023-05-20T07:06:17;0.63;;;0.60;;
52848;SDS011;38714;53.180;5.812;2023-05-20T07:08:43;1.23;;;0.70;;
52848;SDS011;38714;53.180;5.812;2023-05-20T07:11:08;0.63;;;0.63;;
52848;SDS011;38714;53.180;5.812;2023-05-20T07:13:34;1.00;;;0.57;;
52848;SDS011;38714;53.180;5.812;2023-05-20T07:16:00;3.40;;;0.73;;
52848;SDS011;38714;53.180;5.812;2023-05-20T07:18:25;1.05;;;0.60;;
52848;SDS011;38714;53.180;5.812;2023-05-20T07:20:52;0.75;;;0.50;;
52848;SDS011;38714;53.180;5.812;2023-05-20T07:23:18;1.50;;;0.82;;
52848;SDS011;38714;53.180;5.812;2023-05-20T07:25:43;1.33;;;0.70;;
52848;SDS011;38714;53.180;5.812;2023-05-20T07:28:10;0.85;;;0.65;;
52848;SDS011;38714;53.180;5.812;2023-05-20T07:30:36;1.00;;;0.60;;
52848;SDS011;38714;53.180;5.812;2023-05-20T07:33:01;1.65;;;0.80;;
52848;SDS011;38714;53.180;5.812;2023-05-20T07:35:27;1.08;;;0.63;;
52848;SDS011;38714;53.180;5.812;2023-05-20T07:37:53;1.13;;;0.73;;
52848;SDS011;38714;53.180;5.812;2023-05-20T07:40:18;1.08;;;0.63;;
52848;SDS011;38714;53.180;5.812;2023-05-20T07:42:44;1.27;;;1.17;;
52848;SDS011;38714;53.180;5.812;2023-05-20T07:45:10;1.00;;;0.88;;
52848;SDS011;38714;53.180;5.812;2023-05-20T07:47:35;2.75;;;1.23;;
52848;SDS011;38714;53.180;5.812;2023-05-20T07:50:02;2.60;;;0.63;;
52848;SDS011;38714;53.180;5.812;2023-05-20T07:52:27;1.92;;;0.75;;
52848;SDS011;38714;53.180;5.812;2023-05-20T07:54:53;2.10;;;0.60;;
52848;SDS011;38714;53.180;5.812;2023-05-20T07:57:18;2.17;;;0.65;;
52848;SDS011;38714;53.180;5.812;2023-05-20T07:59:44;1.33;;;0.65;;
52848;SDS011;38714;53.180;5.812;2023-05-20T08:02:10;1.13;;;1.08;;
52848;SDS011;38714;53.180;5.812;2023-05-20T08:04:35;1.17;;;0.70;;
52848;SDS011;38714;53.180;5.812;2023-05-20T08:07:01;1.80;;;0.90;;
52848;SDS011;38714;53.180;5.812;2023-05-20T08:09:27;0.98;;;0.82;;
52848;SDS011;38714;53.180;5.812;2023-05-20T08:11:52;2.55;;;1.25;;
52848;SDS011;38714;53.180;5.812;2023-05-20T08:14:18;1.75;;;0.65;;
52848;SDS011;38714;53.180;5.812;2023-05-20T08:16:43;1.60;;;0.70;;
52848;SDS011;38714;53.180;5.812;2023-05-20T08:19:09;0.57;;;0.57;;
52848;SDS011;38714;53.180;5.812;2023-05-20T08:21:35;0.70;;;0.70;;
52848;SDS011;38714;53.180;5.812;2023-05-20T08:24:01;2.03;;;0.90;;
52848;SDS011;38714;53.180;5.812;2023-05-20T08:26:27;1.73;;;1.10;;
52848;SDS011;38714;53.180;5.812;2023-05-20T08:28:52;0.73;;;0.70;;
52848;SDS011;38714;53.180;5.812;2023-05-20T08:31:18;1.10;;;0.70;;
52848;SDS011;38714;53.180;5.812;2023-05-20T08:33:44;1.60;;;0.98;;
52848;SDS011;38714;53.180;5.812;2023-05-20T08:36:09;1.13;;;0.98;;
52848;SDS011;38714;53.180;5.812;2023-05-20T08:38:35;2.20;;;0.77;;
52848;SDS011;38714;53.180;5.812;2023-05-20T08:41:01;2.20;;;0.55;;
52848;SDS011;38714;53.180;5.812;2023-05-20T08:43:26;1.38;;;0.73;;
52848;SDS011;38714;53.180;5.812;2023-05-20T08:45:54;0.57;;;0.57;;
52848;SDS011;38714;53.180;5.812;2023-05-20T08:48:21;3.28;;;0.50;;
52848;SDS011;38714;53.180;5.812;2023-05-20T08:50:50;1.42;;;0.77;;
52848;SDS011;38714;53.180;5.812;2023-05-20T08:53:16;0.98;;;0.52;;
52848;SDS011;38714;53.180;5.812;2023-05-20T08:55:47;1.00;;;0.70;;
52848;SDS011;38714;53.180;5.812;2023-05-20T08:58:21;0.50;;;0.50;;
52848;SDS011;38714;53.180;5.812;2023-05-20T09:00:48;2.20;;;0.80;;
52848;SDS011;38714;53.180;5.812;2023-05-20T09:03:15;3.78;;;0.60;;
52848;SDS011;38714;53.180;5.812;2023-05-20T09:05:41;2.13;;;0.73;;
52848;SDS011;38714;53.180;5.812;2023-05-20T09:08:07;1.25;;;0.80;;
52848;SDS011;38714;53.180;5.812;2023-05-20T09:10:34;1.80;;;0.70;;
52848;SDS011;38714;53.180;5.812;2023-05-20T09:13:01;2.97;;;0.70;;
52848;SDS011;38714;53.180;5.812;2023-05-20T09:15:28;0.40;;;0.40;;
52848;SDS011;38714;53.180;5.812;2023-05-20T09:17:54;1.08;;;0.80;;
52848;SDS011;38714;53.180;5.812;2023-05-20T09:20:23;2.97;;;0.50;;
52848;SDS011;38714;53.180;5.812;2023-05-20T09:22:50;0.80;;;0.60;;
52848;SDS011;38714;53.180;5.812;2023-05-20T09:25:19;1.70;;;0.60;;
52848;SDS011;38714;53.180;5.812;2023-05-20T09:27:47;1.98;;;0.75;;
52848;SDS011;38714;53.180;5.812;2023-05-20T09:30:14;1.08;;;0.63;;
52848;SDS011;38714;53.180;5.812;2023-05-20T09:32:42;2.28;;;0.88;;
52848;SDS011;38714;53.180;5.812;2023-05-20T09:35:11;0.60;;;0.52;;
52848;SDS011;38714;53.180;5.812;2023-05-20T09:37:37;0.88;;;0.73;;
52848;SDS011;38714;53.180;5.812;2023-05-20T09:40:06;0.77;;;0.73;;
52848;SDS011;38714;53.180;5.812;2023-05-20T09:42:43;1.17;;;0.98;;
52848;SDS011;38714;53.180;5.812;2023-05-20T09:45:14;0.40;;;0.40;;
52848;SDS011;38714;53.180;5.812;2023-05-20T09:47:40;1.73;;;0.68;;
52848;SDS011;38714;53.180;5.812;2023-05-20T09:50:07;1.75;;;0.88;;
52848;SDS011;38714;53.180;5.812;2023-05-20T09:52:36;0.60;;;0.60;;
52848;SDS011;38714;53.180;5.812;2023-05-20T09:55:04;2.17;;;0.80;;
52848;SDS011;38714;53.180;5.812;2023-05-20T09:57:33;1.40;;;0.90;;
52848;SDS011;38714;53.180;5.812;2023-05-20T09:59:59;3.40;;;1.10;;
52848;SDS011;38714;53.180;5.812;2023-05-20T10:02:25;9.25;;;1.38;;
52848;SDS011;38714;53.180;5.812;2023-05-20T10:04:52;2.78;;;0.77;;
52848;SDS011;38714;53.180;5.812;2023-05-20T10:07:27;2.08;;;0.77;;
52848;SDS011;38714;53.180;5.812;2023-05-20T10:10:10;0.80;;;0.80;;
52848;SDS011;38714;53.180;5.812;2023-05-20T10:12:52;3.33;;;1.13;;
52848;SDS011;38714;53.180;5.812;2023-05-20T10:15:29;2.22;;;1.15;;
52848;SDS011;38714;53.180;5.812;2023-05-20T10:20:55;1.08;;;0.68;;
52848;SDS011;38714;53.180;5.812;2023-05-20T10:25:53;1.40;;;0.82;;
52848;SDS011;38714;53.180;5.812;2023-05-20T10:28:31;1.23;;;1.02;;
52848;SDS011;38714;53.180;5.812;2023-05-20T10:31:01;0.80;;;0.80;;
52848;SDS011;38714;53.180;5.812;2023-05-20T10:33:27;1.33;;;0.98;;
52848;SDS011;38714;53.180;5.812;2023-05-20T10:35:56;2.20;;;0.90;;
52848;SDS011;38714;53.180;5.812;2023-05-20T10:38:23;2.22;;;0.93;;
52848;SDS011;38714;53.180;5.812;2023-05-20T10:40:50;1.58;;;1.08;;
52848;SDS011;38714;53.180;5.812;2023-05-20T10:43:24;1.90;;;1.05;;
52848;SDS011;38714;53.180;5.812;2023-05-20T10:45:52;2.67;;;1.02;;
52848;SDS011;38714;53.180;5.812;2023-05-20T10:48:20;1.45;;;0.80;;
52848;SDS011;38714;53.180;5.812;2023-05-20T10:50:52;4.38;;;1.38;;
52848;SDS011;38714;53.180;5.812;2023-05-20T10:53:21;1.65;;;0.90;;
52848;SDS011;38714;53.180;5.812;2023-05-20T10:55:48;0.80;;;0.80;;
52848;SDS011;38714;53.180;5.812;2023-05-20T10:58:15;5.45;;;1.20;;
52848;SDS011;38714;53.180;5.812;2023-05-20T11:00:41;3.50;;;1.38;;
52848;SDS011;38714;53.180;5.812;2023-05-20T11:03:08;4.00;;;1.05;;
52848;SDS011;38714;53.180;5.812;2023-05-20T11:05:37;5.47;;;1.10;;
52848;SDS011;38714;53.180;5.812;2023-05-20T11:08:05;2.08;;;0.85;;
52848;SDS011;38714;53.180;5.812;2023-05-20T11:10:32;2.08;;;1.08;;
52848;SDS011;38714;53.180;5.812;2023-05-20T11:12:59;1.90;;;1.05;;
52848;SDS011;38714;53.180;5.812;2023-05-20T11:15:25;1.80;;;1.13;;
52848;SDS011;38714;53.180;5.812;2023-05-20T11:17:52;3.28;;;1.40;;
52848;SDS011;38714;53.180;5.812;2023-05-20T11:20:19;1.75;;;1.05;;
52848;SDS011;38714;53.180;5.812;2023-05-20T11:22:52;1.23;;;0.93;;
52848;SDS011;38714;53.180;5.812;2023-05-20T11:25:18;2.92;;;1.13;;
52848;SDS011;38714;53.180;5.812;2023-05-20T11:27:45;1.38;;;1.15;;
52848;SDS011;38714;53.180;5.812;2023-05-20T11:30:14;5.13;;;1.65;;
52848;SDS011;38714;53.180;5.812;2023-05-20T11:32:44;2.45;;;0.88;;
52848;SDS011;38714;53.180;5.812;2023-05-20T11:35:24;2.55;;;0.88;;
52848;SDS011;38714;53.180;5.812;2023-05-20T11:40:27;2.22;;;1.25;;
52848;SDS011;38714;53.180;5.812;2023-05-20T11:42:54;1.85;;;0.95;;
52848;SDS011;38714;53.180;5.812;2023-05-20T11:45:21;1.10;;;1.00;;
52848;SDS011;38714;53.180;5.812;2023-05-20T11:47:57;1.70;;;1.10;;
52848;SDS011;38714;53.180;5.812;2023-05-20T11:50:27;4.60;;;1.00;;
52848;SDS011;38714;53.180;5.812;2023-05-20T11:52:57;3.42;;;1.00;;
52848;SDS011;38714;53.180;5.812;2023-05-20T11:55:25;1.38;;;1.17;;
52848;SDS011;38714;53.180;5.812;2023-05-20T11:57:51;4.78;;;1.45;;
52848;SDS011;38714;53.180;5.812;2023-05-20T12:00:17;4.18;;;1.67;;
52848;SDS011;38714;53.180;5.812;2023-05-20T12:02:46;2.35;;;1.00;;
52848;SDS011;38714;53.180;5.812;2023-05-20T12:05:11;1.92;;;1.10;;
52848;SDS011;38714;53.180;5.812;2023-05-20T12:07:37;8.32;;;1.40;;
52848;SDS011;38714;53.180;5.812;2023-05-20T12:10:03;3.28;;;1.10;;
52848;SDS011;38714;53.180;5.812;2023-05-20T12:12:29;2.78;;;1.63;;
52848;SDS011;38714;53.180;5.812;2023-05-20T12:14:55;5.72;;;1.27;;
52848;SDS011;38714;53.180;5.812;2023-05-20T12:17:21;2.72;;;1.40;;
52848;SDS011;38714;53.180;5.812;2023-05-20T12:19:46;1.98;;;1.35;;
52848;SDS011;38714;53.180;5.812;2023-05-20T12:22:12;1.10;;;0.98;;
52848;SDS011;38714;53.180;5.812;2023-05-20T12:24:37;4.13;;;1.25;;
52848;SDS011;38714;53.180;5.812;2023-05-20T12:27:03;1.92;;;1.25;;
52848;SDS011;38714;53.180;5.812;2023-05-20T12:29:30;1.88;;;1.40;;
52848;SDS011;38714;53.180;5.812;2023-05-20T12:31:56;2.22;;;1.20;;
52848;SDS011;38714;53.180;5.812;2023-05-20T12:34:22;2.30;;;1.30;;
52848;SDS011;38714;53.180;5.812;2023-05-20T12:36:47;3.72;;;1.13;;
52848;SDS011;38714;53.180;5.812;2023-05-20T12:39:13;3.67;;;1.48;;
52848;SDS011;38714;53.180;5.812;2023-05-20T12:41:41;1.98;;;1.23;;
52848;SDS011;38714;53.180;5.812;2023-05-20T12:44:07;2.65;;;1.00;;
52848;SDS011;38714;53.180;5.812;2023-05-20T12:46:33;4.68;;;1.60;;
52848;SDS011;38714;53.180;5.812;2023-05-20T12:49:00;10.90;;;1.40;;
52848;SDS011;38714;53.180;5.812;2023-05-20T12:51:25;2.53;;;1.42;;
52848;SDS011;38714;53.180;5.812;2023-05-20T12:53:51;3.72;;;1.17;;
52848;SDS011;38714;53.180;5.812;2023-05-20T12:56:17;3.33;;;1.17;;
52848;SDS011;38714;53.180;5.812;2023-05-20T12:58:43;2.40;;;1.77;;
52848;SDS011;38714;53.180;5.812;2023-05-20T13:01:09;4.22;;;1.23;;
52848;SDS011;38714;53.180;5.812;2023-05-20T13:03:35;3.03;;;1.30;;
52848;SDS011;38714;53.180;5.812;2023-05-20T13:06:00;1.85;;;1.08;;
52848;SDS011;38714;53.180;5.812;2023-05-20T13:08:26;4.13;;;1.02;;
52848;SDS011;38714;53.180;5.812;2023-05-20T13:10:52;3.42;;;1.45;;
52848;SDS011;38714;53.180;5.812;2023-05-20T13:13:17;5.88;;;1.33;;
52848;SDS011;38714;53.180;5.812;2023-05-20T13:15:46;3.22;;;1.90;;
52848;SDS011;38714;53.180;5.812;2023-05-20T13:18:13;4.32;;;1.55;;
52848;SDS011;38714;53.180;5.812;2023-05-20T13:20:40;6.93;;;3.35;;
52848;SDS011;38714;53.180;5.812;2023-05-20T13:23:06;2.92;;;1.25;;
52848;SDS011;38714;53.180;5.812;2023-05-20T13:25:32;4.40;;;1.30;;
52848;SDS011;38714;53.180;5.812;2023-05-20T13:27:57;1.85;;;1.30;;
52848;SDS011;38714;53.180;5.812;2023-05-20T13:30:23;2.30;;;1.27;;
52848;SDS011;38714;53.180;5.812;2023-05-20T13:32:49;5.85;;;1.38;;
52848;SDS011;38714;53.180;5.812;2023-05-20T13:35:17;3.67;;;1.17;;
52848;SDS011;38714;53.180;5.812;2023-05-20T13:37:43;4.22;;;1.40;;
52848;SDS011;38714;53.180;5.812;2023-05-20T13:40:09;1.98;;;1.77;;
52848;SDS011;38714;53.180;5.812;2023-05-20T13:42:35;4.97;;;1.50;;
52848;SDS011;38714;53.180;5.812;2023-05-20T13:45:00;2.67;;;1.35;;
52848;SDS011;38714;53.180;5.812;2023-05-20T13:47:26;3.13;;;1.55;;
52848;SDS011;38714;53.180;5.812;2023-05-20T13:49:52;8.52;;;1.40;;
52848;SDS011;38714;53.180;5.812;2023-05-20T13:52:17;2.42;;;1.58;;
52848;SDS011;38714;53.180;5.812;2023-05-20T13:54:43;5.38;;;1.80;;
52848;SDS011;38714;53.180;5.812;2023-05-20T13:57:11;2.65;;;1.85;;
52848;SDS011;38714;53.180;5.812;2023-05-20T13:59:36;2.60;;;1.75;;
52848;SDS011;38714;53.180;5.812;2023-05-20T14:02:02;4.70;;;1.92;;
52848;SDS011;38714;53.180;5.812;2023-05-20T14:04:28;5.18;;;1.70;;
52848;SDS011;38714;53.180;5.812;2023-05-20T14:06:55;3.78;;;1.55;;
52848;SDS011;38714;53.180;5.812;2023-05-20T14:09:21;1.52;;;1.33;;
52848;SDS011;38714;53.180;5.812;2023-05-20T14:11:46;2.78;;;1.30;;
52848;SDS011;38714;53.180;5.812;2023-05-20T14:14:12;1.95;;;1.40;;
52848;SDS011;38714;53.180;5.812;2023-05-20T14:16:38;3.38;;;1.20;;
52848;SDS011;38714;53.180;5.812;2023-05-20T14:19:03;3.72;;;1.30;;
52848;SDS011;38714;53.180;5.812;2023-05-20T14:21:29;4.28;;;1.00;;
52848;SDS011;38714;53.180;5.812;2023-05-20T14:23:56;2.80;;;1.48;;
52848;SDS011;38714;53.180;5.812;2023-05-20T14:26:23;2.50;;;1.15;;
52848;SDS011;38714;53.180;5.812;2023-05-20T14:28:48;1.38;;;1.05;;
52848;SDS011;38714;53.180;5.812;2023-05-20T14:31:14;1.25;;;0.80;;
52848;SDS011;38714;53.180;5.812;2023-05-20T14:33:40;3.63;;;1.17;;
52848;SDS011;38714;53.180;5.812;2023-05-20T14:36:06;1.05;;;0.88;;
52848;SDS011;38714;53.180;5.812;2023-05-20T14:38:31;2.97;;;1.30;;
52848;SDS011;38714;53.180;5.812;2023-05-20T14:40:57;2.55;;;1.33;;
52848;SDS011;38714;53.180;5.812;2023-05-20T14:43:22;2.17;;;0.95;;
52848;SDS011;38714;53.180;5.812;2023-05-20T14:45:48;3.28;;;1.42;;
52848;SDS011;38714;53.180;5.812;2023-05-20T14:48:14;5.55;;;1.67;;
52848;SDS011;38714;53.180;5.812;2023-05-20T14:50:39;1.60;;;1.05;;
52848;SDS011;38714;53.180;5.812;2023-05-20T14:53:05;1.58;;;1.00;;
52848;SDS011;38714;53.180;5.812;2023-05-20T14:55:31;1.75;;;1.08;;